createdAt,value
2022-11-21T00:00:41.546Z,99986.84
2022-11-21T00:03:10.236Z,99987.94
2022-11-21T00:05:41.477Z,99984.09
2022-11-21T00:08:08.676Z,99986.06
2022-11-21T00:10:36.645Z,99985.94
2022-11-21T00:13:03.245Z,99986.00
2022-11-21T00:15:29.738Z,99990.53
2022-11-21T00:17:56.524Z,99983.41
2022-11-21T00:20:23.225Z,99984.97
2022-11-21T00:22:50.443Z,99983.59
2022-11-21T00:25:16.965Z,99979.47
2022-11-21T00:27:43.438Z,99974.72
2022-11-21T00:30:11.302Z,99970.41
2022-11-21T00:32:38.460Z,99969.88
2022-11-21T00:35:06.016Z,99972.38
2022-11-21T00:37:33.366Z,99975.50
2022-11-21T00:40:00.006Z,99966.53
2022-11-21T00:42:26.954Z,99977.78
2022-11-21T00:44:53.577Z,99974.53
2022-11-21T00:47:20.034Z,99969.84
2022-11-21T00:49:46.526Z,99968.81
2022-11-21T00:52:13.010Z,99968.13
2022-11-21T00:54:39.527Z,99967.69
2022-11-21T00:57:05.990Z,99956.38
2022-11-21T00:59:32.495Z,99957.94
2022-11-21T01:01:59.224Z,99955.44
2022-11-21T01:04:26.414Z,99943.47
2022-11-21T01:06:54.012Z,99942.44
2022-11-21T01:09:20.748Z,99947.56
2022-11-21T01:11:47.195Z,99946.28
2022-11-21T01:14:13.931Z,99950.41
2022-11-21T01:16:40.431Z,99960.06
2022-11-21T01:19:06.924Z,99964.13
2022-11-21T01:21:33.389Z,99963.69
2022-11-21T01:24:01.212Z,99958.91
2022-11-21T01:26:29.882Z,99970.19
2022-11-21T01:28:57.906Z,99961.59
2022-11-21T01:31:27.147Z,99956.47
2022-11-21T01:33:54.969Z,99956.47
2022-11-21T01:36:24.998Z,99967.16
2022-11-21T01:38:53.466Z,99965.53
2022-11-21T01:41:23.070Z,99968.44
2022-11-21T01:43:50.370Z,99966.34
2022-11-21T01:46:21.911Z,99962.03
2022-11-21T01:49:11.959Z,99955.00
2022-11-21T01:51:54.092Z,99950.31
2022-11-21T01:54:27.100Z,99957.19
2022-11-21T01:57:04.003Z,99965.47
2022-11-21T01:59:38.963Z,99959.81
2022-11-21T02:02:09.108Z,99962.69
2022-11-21T02:04:36.809Z,99969.78
2022-11-21T02:07:06.403Z,99965.94
2022-11-21T02:09:36.001Z,99971.34
2022-11-21T02:12:08.082Z,99969.47
2022-11-21T02:14:37.195Z,99983.44
2022-11-21T02:17:07.969Z,99991.28
2022-11-21T02:19:38.871Z,99988.25
2022-11-21T02:22:20.536Z,99982.53
2022-11-21T02:25:27.927Z,99983.53
2022-11-21T02:28:01.936Z,99985.41
2022-11-21T02:30:31.693Z,99987.06
2022-11-21T02:32:58.748Z,99985.28
2022-11-21T02:35:25.760Z,99993.31
2022-11-21T02:37:59.513Z,99993.56
2022-11-21T02:40:31.905Z,99991.13
2022-11-21T02:43:21.930Z,99990.34
2022-11-21T02:45:48.665Z,99987.72
2022-11-21T02:48:15.760Z,99996.72
2022-11-21T02:50:44.143Z,99994.28
2022-11-21T02:53:13.639Z,99986.31
2022-11-21T02:55:40.569Z,99982.88
2022-11-21T02:58:07.857Z,99990.84
2022-11-21T03:00:36.305Z,99993.34
2022-11-21T03:03:02.860Z,99994.34
2022-11-21T03:05:29.875Z,99999.50
2022-11-21T03:07:56.677Z,100001.38
2022-11-21T03:10:23.216Z,100002.81
2022-11-21T03:12:49.709Z,100009.41
2022-11-21T03:15:16.616Z,100005.47
2022-11-21T03:17:43.628Z,100011.03
2022-11-21T03:20:10.675Z,100006.97
2022-11-21T03:22:37.169Z,100002.66
2022-11-21T03:25:04.162Z,100006.75
2022-11-21T03:27:30.909Z,100001.66
2022-11-21T03:29:57.368Z,100009.00
2022-11-21T03:32:24.112Z,100003.66
2022-11-21T03:34:50.735Z,100014.97
2022-11-21T03:37:17.193Z,100007.41
2022-11-21T03:39:43.819Z,100017.03
2022-11-21T03:42:10.483Z,100024.41
2022-11-21T03:44:36.975Z,100028.53
2022-11-21T03:47:03.611Z,100032.41
2022-11-21T03:49:30.054Z,100038.13
2022-11-21T03:51:56.768Z,100043.47
2022-11-21T03:54:23.335Z,100043.47
2022-11-21T03:56:49.810Z,100045.50
2022-11-21T03:59:16.580Z,100034.88
2022-11-21T04:01:43.114Z,100034.06
2022-11-21T04:04:09.635Z,100040.59
2022-11-21T04:06:36.114Z,100041.00
2022-11-21T04:09:03.143Z,100042.66
2022-11-21T04:11:29.683Z,100039.59
2022-11-21T04:13:56.484Z,100037.53
2022-11-21T04:16:23.162Z,100041.22
2022-11-21T04:18:49.631Z,100048.97
2022-11-21T04:21:16.088Z,100060.88
2022-11-21T04:23:42.540Z,100058.00
2022-11-21T04:26:09.001Z,100053.69
2022-11-21T04:28:35.524Z,100055.75
2022-11-21T04:31:09.891Z,100046.31
2022-11-21T04:33:38.273Z,100036.09
2022-11-21T04:36:04.966Z,100036.31
2022-11-21T04:38:31.432Z,100038.56
2022-11-21T04:40:57.939Z,100037.13
2022-11-21T04:43:24.647Z,100038.13
2022-11-21T04:45:51.112Z,100040.19
2022-11-21T04:48:17.644Z,100048.97
2022-11-21T04:50:45.867Z,100050.41
2022-11-21T04:53:12.946Z,100054.09
2022-11-21T04:55:39.561Z,100050.63
2022-11-21T04:58:06.024Z,100062.28
2022-11-21T05:00:32.515Z,100066.38
2022-11-21T05:03:06.374Z,100054.50
2022-11-21T05:05:33.275Z,100055.94
2022-11-21T05:08:00.104Z,100054.72
2022-11-21T05:10:28.179Z,100059.38
2022-11-21T05:13:17.867Z,100056.53
2022-11-21T05:15:44.708Z,100063.25
2022-11-21T05:18:11.858Z,100056.88
2022-11-21T05:20:38.389Z,100051.78
2022-11-21T05:23:04.911Z,100051.34
2022-11-21T05:25:31.378Z,100049.72
2022-11-21T05:27:58.435Z,100057.09
2022-11-21T05:30:25.018Z,100057.88
2022-11-21T05:32:51.491Z,100060.13
2022-11-21T05:35:17.992Z,100062.97
2022-11-21T05:37:44.446Z,100057.47
2022-11-21T05:40:11.718Z,100061.94
2022-11-21T05:43:01.212Z,100052.50
2022-11-21T05:45:27.713Z,100051.09
2022-11-21T05:47:54.454Z,100053.28
2022-11-21T05:50:21.077Z,100058.22
2022-11-21T05:52:47.532Z,100062.09
2022-11-21T05:55:14.129Z,100060.88
2022-11-21T05:57:40.606Z,100058.19
2022-11-21T06:00:07.754Z,100060.66
2022-11-21T06:02:52.720Z,100057.25
2022-11-21T06:05:19.262Z,100063.75
2022-11-21T06:07:45.798Z,100068.88
2022-11-21T06:10:12.288Z,100055.03
2022-11-21T06:12:39.073Z,100067.66
2022-11-21T06:15:05.851Z,100069.84
2022-11-21T06:17:32.581Z,100068.84
2022-11-21T06:19:59.051Z,100063.34
2022-11-21T06:22:25.791Z,100072.50
2022-11-21T06:24:52.240Z,100071.09
2022-11-21T06:27:18.697Z,100067.41
2022-11-21T06:29:45.134Z,100063.72
2022-11-21T06:32:11.962Z,100062.31
2022-11-21T06:34:38.497Z,100065.34
2022-11-21T06:37:05.041Z,100074.75
2022-11-21T06:39:31.564Z,100074.56
2022-11-21T06:41:58.951Z,100074.78
2022-11-21T06:44:26.045Z,100070.31
2022-11-21T06:46:52.732Z,100063.13
2022-11-21T06:49:19.303Z,100059.88
2022-11-21T06:51:45.798Z,100061.69
2022-11-21T06:54:16.440Z,100063.94
2022-11-21T06:56:44.180Z,100065.00
2022-11-21T06:59:11.455Z,100067.41
2022-11-21T07:01:38.378Z,100075.84
2022-11-21T07:04:04.992Z,100071.13
2022-11-21T07:06:31.442Z,100081.78
2022-11-21T07:09:30.822Z,100082.59
2022-11-21T07:11:44.515Z,100080.97
2022-11-21T07:14:11.034Z,100088.50
2022-11-21T07:16:37.485Z,100093.41
2022-11-21T07:19:04.254Z,100096.91
2022-11-21T07:21:31.046Z,100102.59
2022-11-21T07:23:57.660Z,100103.03
2022-11-21T07:26:24.685Z,100099.56
2022-11-21T07:28:51.155Z,100095.66
2022-11-21T07:31:17.657Z,100081.53
2022-11-21T07:33:44.364Z,100069.84
2022-11-21T07:36:12.835Z,100081.25
2022-11-21T07:38:41.199Z,100076.75
2022-11-21T07:41:08.094Z,100073.84
2022-11-21T07:43:34.555Z,100075.69
2022-11-21T07:46:01.921Z,100076.75
2022-11-21T07:48:28.640Z,100080.25
2022-11-21T07:50:55.117Z,100081.75
2022-11-21T07:53:21.638Z,100084.00
2022-11-21T07:55:48.259Z,100088.50
2022-11-21T07:58:16.403Z,100086.31
2022-11-21T08:00:43.226Z,100088.75
2022-11-21T08:03:12.179Z,100089.59
2022-11-21T08:05:43.572Z,100089.63
2022-11-21T08:08:11.981Z,100097.19
2022-11-21T08:10:43.318Z,100088.75
2022-11-21T08:13:10.595Z,100084.09
2022-11-21T08:15:38.002Z,100089.19
2022-11-21T08:18:15.330Z,100087.34
2022-11-21T08:20:42.742Z,100091.44
2022-11-21T08:23:10.871Z,100097.41
2022-11-21T08:25:38.685Z,100099.91
2022-11-21T08:28:06.458Z,100094.56
2022-11-21T08:30:33.583Z,100098.28
2022-11-21T08:33:03.914Z,100097.47
2022-11-21T08:35:30.864Z,100097.47
2022-11-21T08:37:58.672Z,100098.09
2022-11-21T08:40:26.815Z,100096.44
2022-11-21T08:43:01.179Z,100092.16
2022-11-21T08:45:28.364Z,100097.88
2022-11-21T08:47:55.680Z,100092.13
2022-11-21T08:50:23.913Z,100089.66
2022-11-21T08:52:50.919Z,100089.66
2022-11-21T08:55:17.919Z,100094.59
2022-11-21T08:57:44.421Z,100097.69
2022-11-21T09:00:14.908Z,100080.91
2022-11-21T09:02:41.504Z,100079.28
2022-11-21T09:05:08.620Z,100086.22
2022-11-21T09:07:38.390Z,100089.53
2022-11-21T09:10:05.721Z,100075.41
2022-11-21T09:12:32.157Z,100070.06
2022-11-21T09:15:17.427Z,100062.94
2022-11-21T09:18:02.615Z,100062.72
2022-11-21T09:20:29.863Z,100071.50
2022-11-21T09:22:57.117Z,100064.94
2022-11-21T09:25:24.163Z,100056.53
2022-11-21T09:27:50.627Z,100063.69
2022-11-21T09:30:17.336Z,100061.03
2022-11-21T09:32:43.824Z,100058.34
2022-11-21T09:35:10.322Z,100060.00
2022-11-21T09:37:38.105Z,100060.19
2022-11-21T09:40:08.117Z,100069.16
2022-11-21T09:43:02.582Z,100062.38
2022-11-21T09:45:44.283Z,100057.00
2022-11-21T09:48:15.784Z,100056.78
2022-11-21T09:50:53.808Z,100057.81
2022-11-21T09:53:35.471Z,100060.25
2022-11-21T09:56:11.194Z,100059.63
2022-11-21T09:58:42.324Z,100065.72
2022-11-21T10:01:16.848Z,100062.41
2022-11-21T10:03:49.289Z,100057.22
2022-11-21T10:06:21.570Z,100060.47
2022-11-21T10:09:15.468Z,100062.31
2022-11-21T10:12:13.146Z,100068.56
2022-11-21T10:14:51.930Z,100063.56
2022-11-21T10:17:27.757Z,100062.94
2022-11-21T10:20:03.083Z,100059.78
2022-11-21T10:22:44.317Z,100066.69
2022-11-21T10:25:38.096Z,100059.03
2022-11-21T10:28:15.597Z,100052.22
2022-11-21T10:30:45.368Z,100051.06
2022-11-21T10:33:23.998Z,100055.31
2022-11-21T10:35:57.685Z,100053.69
2022-11-21T10:38:27.153Z,100048.72
2022-11-21T10:41:01.231Z,100047.38
2022-11-21T10:44:05.768Z,100037.31
2022-11-21T10:46:32.244Z,100027.22
2022-11-21T10:49:04.679Z,100027.16
2022-11-21T10:51:40.765Z,100032.19
2022-11-21T10:54:29.129Z,100024.19
2022-11-21T10:57:14.131Z,100026.69
2022-11-21T10:59:40.946Z,100031.97
2022-11-21T11:02:13.249Z,100019.78
2022-11-21T11:04:47.308Z,100011.91
2022-11-21T11:07:28.744Z,100009.16
2022-11-21T11:10:16.316Z,100008.53
2022-11-21T11:13:08.706Z,100004.34
2022-11-21T11:16:01.338Z,100001.00
2022-11-21T11:18:31.367Z,99990.75
2022-11-21T11:21:26.238Z,99991.03
2022-11-21T11:23:54.901Z,99976.72
2022-11-21T11:26:25.041Z,99976.28
2022-11-21T11:28:51.526Z,99972.09
2022-11-21T11:31:18.218Z,99959.53
2022-11-21T11:33:47.690Z,99949.31
2022-11-21T11:36:26.190Z,99956.41
2022-11-21T11:38:56.213Z,99940.84
2022-11-21T11:42:02.660Z,99937.69
2022-11-21T11:45:26.050Z,99937.81
2022-11-21T11:47:59.132Z,99931.53
2022-11-21T11:50:41.552Z,99933.63
2022-11-21T11:53:20.013Z,99927.22
2022-11-21T11:56:08.608Z,99924.31
2022-11-21T11:58:49.661Z,99924.66
2022-11-21T12:01:26.076Z,99921.84
2022-11-21T12:04:16.397Z,99918.47
2022-11-21T12:07:52.803Z,99911.94
2022-11-21T12:10:04.853Z,99903.22
2022-11-21T12:12:37.185Z,99894.69
2022-11-21T12:15:36.334Z,99887.72
2022-11-21T12:18:18.673Z,99886.66
2022-11-21T12:20:56.289Z,99884.06
2022-11-21T12:23:47.778Z,99879.41
2022-11-21T12:26:20.469Z,99876.09
2022-11-21T12:29:20.764Z,99884.78
2022-11-21T12:32:08.880Z,99874.81
2022-11-21T12:34:50.644Z,99867.09
2022-11-21T12:37:55.509Z,99871.81
2022-11-21T12:40:48.931Z,99866.81
2022-11-21T12:43:23.812Z,99866.25
2022-11-21T12:46:20.759Z,99863.81
2022-11-21T12:49:17.918Z,99855.69
2022-11-21T12:52:19.350Z,99863.63
2022-11-21T12:55:23.830Z,99857.28
2022-11-21T12:58:22.238Z,99852.66
2022-11-21T13:01:21.460Z,99846.00
2022-11-21T13:04:09.511Z,99854.28
2022-11-21T13:06:40.385Z,99840.31
2022-11-21T13:09:13.436Z,99843.78
2022-11-21T13:11:59.269Z,99840.78
2022-11-21T13:14:36.433Z,99837.06
2022-11-21T13:17:06.934Z,99829.16
2022-11-21T13:19:44.029Z,99834.84
2022-11-21T13:22:35.374Z,99827.13
2022-11-21T13:25:24.521Z,99830.00
2022-11-21T13:27:52.408Z,99831.47
2022-11-21T13:30:22.489Z,99827.03
2022-11-21T13:32:55.376Z,99818.47
2022-11-21T13:35:21.803Z,99823.00
2022-11-21T13:38:13.064Z,99817.97
2022-11-21T13:41:00.563Z,99809.47
2022-11-21T13:43:35.476Z,99803.16
2022-11-21T13:46:02.327Z,99810.06
2022-11-21T13:48:30.549Z,99804.47
2022-11-21T13:51:35.728Z,99794.41
2022-11-21T13:54:32.647Z,99791.78
2022-11-21T13:57:24.953Z,99796.84
2022-11-21T14:00:06.498Z,99799.06
2022-11-21T14:03:10.248Z,99790.66
2022-11-21T14:05:47.904Z,99781.75
2022-11-21T14:08:22.985Z,99781.66
2022-11-21T14:10:58.930Z,99779.53
2022-11-21T14:13:37.927Z,99776.88
2022-11-21T14:16:35.058Z,99771.72
2022-11-21T14:19:05.379Z,99785.72
2022-11-21T14:21:33.973Z,99784.16
2022-11-21T14:24:04.729Z,99775.88
2022-11-21T14:26:47.198Z,99771.94
2022-11-21T14:29:26.708Z,99778.56
2022-11-21T14:31:54.601Z,99777.44
2022-11-21T14:34:26.536Z,99768.72
2022-11-21T14:36:53.589Z,99764.84
2022-11-21T14:39:44.139Z,99751.84
2022-11-21T14:42:14.551Z,99749.19
2022-11-21T14:44:41.284Z,99750.91
2022-11-21T14:47:23.601Z,99751.25
2022-11-21T14:49:55.388Z,99757.78
2022-11-21T14:52:31.637Z,99750.25
2022-11-21T14:57:49.047Z,99748.03
2022-11-21T15:03:19.794Z,99735.81
2022-11-21T15:06:01.792Z,99729.56
2022-11-21T15:09:03.245Z,99725.00
2022-11-21T15:11:19.208Z,99711.19
2022-11-21T15:14:12.875Z,99715.81
2022-11-21T15:16:37.471Z,99699.66
2022-11-21T15:19:11.158Z,99701.28
2022-11-21T15:21:43.530Z,99693.03
2022-11-21T15:24:31.683Z,99693.50
2022-11-21T15:26:59.495Z,99684.56
2022-11-21T15:29:27.182Z,99681.28
2022-11-21T15:32:06.899Z,99686.25
2022-11-21T15:34:48.030Z,99687.38
2022-11-21T15:37:17.477Z,99685.31
2022-11-21T15:39:46.118Z,99672.75
2022-11-21T15:42:31.614Z,99674.38
2022-11-21T15:45:05.724Z,99672.88
2022-11-21T15:47:32.193Z,99685.50
2022-11-21T15:49:58.710Z,99685.38
2022-11-21T15:52:25.696Z,99669.13
2022-11-21T15:54:52.216Z,99668.31
2022-11-21T15:59:50.543Z,99668.16
2022-11-21T16:02:17.043Z,99666.50
2022-11-21T16:04:43.597Z,99669.25
2022-11-21T16:07:10.157Z,99671.03
2022-11-21T16:09:37.391Z,99657.72
2022-11-21T16:12:04.094Z,99664.94
2022-11-21T16:14:30.724Z,99656.09
2022-11-21T16:16:57.356Z,99656.00
2022-11-21T16:19:24.030Z,99659.47
2022-11-21T16:21:50.643Z,99662.94
2022-11-21T16:24:17.186Z,99649.47
2022-11-21T16:26:43.618Z,99650.38
2022-11-21T16:29:10.774Z,99645.53
2022-11-21T16:31:37.627Z,99633.25
2022-11-21T16:34:04.194Z,99626.22
2022-11-21T16:36:32.265Z,99631.16
2022-11-21T16:39:07.821Z,99622.47
2022-11-21T16:41:35.707Z,99618.53
2022-11-21T16:44:02.635Z,99621.91
2022-11-21T16:46:29.392Z,99613.53
2022-11-21T16:49:02.842Z,99609.00
2022-11-21T16:51:30.082Z,99604.13
2022-11-21T16:54:01.604Z,99608.91
2022-11-21T16:56:30.821Z,99598.91
2022-11-21T16:58:57.625Z,99594.72
2022-11-21T17:01:26.887Z,99582.66
2022-11-21T17:03:53.474Z,99586.03
2022-11-21T17:06:29.224Z,99579.63
2022-11-21T17:08:55.928Z,99585.09
2022-11-21T17:11:29.348Z,99574.19
2022-11-21T17:14:04.927Z,99569.06
2022-11-21T17:16:32.840Z,99555.69
2022-11-21T17:19:01.993Z,99561.41
2022-11-21T17:21:29.347Z,99556.53
2022-11-21T17:23:55.899Z,99554.22
2022-11-21T17:26:24.715Z,99549.22
2022-11-21T17:28:55.828Z,99556.53
2022-11-21T17:31:23.009Z,99545.81
2022-11-21T17:33:54.836Z,99545.38
2022-11-21T17:36:26.728Z,99534.47
2022-11-21T17:38:53.813Z,99534.47
2022-11-21T17:41:24.559Z,99538.75
2022-11-21T17:43:57.750Z,99533.78
2022-11-21T17:46:25.850Z,99535.63
2022-11-21T17:48:57.084Z,99533.53
2022-11-21T17:51:34.339Z,99513.44
2022-11-21T17:54:01.999Z,99506.59
2022-11-21T17:56:34.484Z,99497.19
2022-11-21T17:59:02.767Z,99493.25
2022-11-21T18:01:30.032Z,99498.81
2022-11-21T18:04:10.305Z,99499.50
2022-11-21T18:06:41.441Z,99506.50
2022-11-21T18:09:10.748Z,99496.16
2022-11-21T18:11:40.277Z,99492.88
2022-11-21T18:14:08.600Z,99481.84
2022-11-21T18:16:35.153Z,99473.84
2022-11-21T18:19:02.699Z,99471.91
2022-11-21T18:21:31.966Z,99463.91
2022-11-21T18:24:00.165Z,99460.28
2022-11-21T18:26:30.094Z,99443.47
2022-11-21T18:31:51.050Z,99444.16
2022-11-21T18:34:17.608Z,99457.84
2022-11-21T18:36:44.232Z,99448.22
2022-11-21T18:39:14.759Z,99445.28
2022-11-21T18:41:44.050Z,99446.81
2022-11-21T18:44:14.649Z,99437.06
2022-11-21T18:46:43.638Z,99430.44
2022-11-21T18:49:10.113Z,99424.53
2022-11-21T18:51:37.091Z,99422.66
2022-11-21T18:54:07.786Z,99414.34
2022-11-21T18:56:34.868Z,99421.66
2022-11-21T18:59:03.205Z,99414.34
2022-11-21T19:01:30.168Z,99406.34
2022-11-21T19:03:56.854Z,99396.47
2022-11-21T19:06:25.645Z,99398.44
2022-11-21T19:08:54.769Z,99377.31
2022-11-21T19:11:24.813Z,99387.63
2022-11-21T19:13:52.637Z,99380.56
2022-11-21T19:16:21.133Z,99373.94
2022-11-21T19:19:00.184Z,99381.81
2022-11-21T19:21:38.753Z,99378.69
2022-11-21T19:24:09.753Z,99373.47
2022-11-21T19:26:36.285Z,99370.88
2022-11-21T19:29:02.783Z,99374.09
2022-11-21T19:31:29.552Z,99374.81
2022-11-21T19:33:58.408Z,99366.91
2022-11-21T19:36:25.357Z,99367.31
2022-11-21T19:38:52.060Z,99373.97
2022-11-21T19:41:25.867Z,99367.84
2022-11-21T19:43:54.629Z,99392.19
2022-11-21T19:46:23.193Z,99373.78
2022-11-21T19:48:51.843Z,99380.53
2022-11-21T19:51:19.864Z,99389.88
2022-11-21T19:53:46.724Z,99414.38
2022-11-21T19:56:24.762Z,99417.88
2022-11-21T19:58:52.153Z,99429.47
2022-11-21T20:01:24.478Z,99435.81
2022-11-21T20:03:54.329Z,99444.44
2022-11-21T20:06:24.221Z,99443.00
2022-11-21T20:08:54.394Z,99434.78
2022-11-21T20:11:21.872Z,99424.09
2022-11-21T20:13:49.708Z,99409.19
2022-11-21T20:16:22.717Z,99405.88
2022-11-21T20:18:50.925Z,99399.81
2022-11-21T20:21:18.735Z,99387.16
2022-11-21T20:23:49.124Z,99390.75
2022-11-21T20:26:17.910Z,99396.38
2022-11-21T20:28:44.711Z,99400.00
2022-11-21T20:31:14.728Z,99397.53
2022-11-21T20:33:43.376Z,99393.34
2022-11-21T20:36:18.614Z,99389.22
2022-11-21T20:38:53.772Z,99398.56
2022-11-21T20:41:25.710Z,99400.53
2022-11-21T20:45:30.100Z,99401.94
2022-11-21T20:47:07.506Z,99396.78
2022-11-21T20:49:34.179Z,99395.59
2022-11-21T20:54:47.143Z,99396.13
2022-11-21T20:57:15.529Z,99393.78
2022-11-21T20:59:42.477Z,99390.41
2022-11-21T21:02:12.548Z,99394.50
2022-11-21T21:04:39.340Z,99385.13
2022-11-21T21:07:05.889Z,99386.91
2022-11-21T21:09:32.525Z,99389.69
2022-11-21T21:11:59.203Z,99387.56
2022-11-21T21:14:25.854Z,99382.44
2022-11-21T21:16:52.280Z,99386.00
2022-11-21T21:19:19.058Z,99386.44
2022-11-21T21:21:45.543Z,99381.97
2022-11-21T21:24:12.758Z,99369.88
2022-11-21T21:26:45.222Z,99377.44
2022-11-21T21:29:14.385Z,99365.84
2022-11-21T21:31:46.753Z,99363.56
2022-11-21T21:34:16.398Z,99375.31
2022-11-21T21:36:42.888Z,99376.53
2022-11-21T21:39:09.369Z,99373.94
2022-11-21T21:41:39.775Z,99365.84
2022-11-21T21:44:06.433Z,99361.69
2022-11-21T21:46:33.056Z,99363.06
2022-11-21T21:48:59.700Z,99372.31
2022-11-21T21:51:28.420Z,99342.03
2022-11-21T21:53:57.004Z,99350.91
2022-11-21T21:56:25.055Z,99355.84
2022-11-21T21:58:51.809Z,99357.84
2022-11-21T22:01:21.175Z,99355.28
2022-11-21T22:03:48.594Z,99349.50
2022-11-21T22:06:17.793Z,99337.75
2022-11-21T22:08:45.924Z,99327.00
2022-11-21T22:11:15.746Z,99329.00
2022-11-21T22:13:44.244Z,99332.69
2022-11-21T22:16:12.746Z,99315.94
2022-11-21T22:18:39.705Z,99309.22
2022-11-21T22:21:24.445Z,99311.84
2022-11-21T22:24:23.025Z,99312.16
2022-11-21T22:26:37.866Z,99309.22
2022-11-21T22:29:04.469Z,99293.78
2022-11-21T22:31:34.316Z,99289.50
2022-11-21T22:34:00.965Z,99291.38
2022-11-21T22:36:27.673Z,99275.16
2022-11-21T22:38:55.662Z,99268.09
2022-11-21T22:41:24.780Z,99268.41
2022-11-21T22:43:56.999Z,99249.00
2022-11-21T22:46:25.597Z,99247.06
2022-11-21T22:48:52.305Z,99243.59
2022-11-21T22:51:24.594Z,99237.28
2022-11-21T22:53:51.327Z,99234.53
2022-11-21T22:56:20.780Z,99232.59
2022-11-21T22:58:48.188Z,99234.53
2022-11-21T23:01:20.615Z,99234.31
2022-11-21T23:03:47.648Z,99236.91
2022-11-21T23:06:20.419Z,99249.38
2022-11-21T23:08:47.633Z,99247.13
2022-11-21T23:11:26.060Z,99246.47
2022-11-21T23:13:53.409Z,99237.72
2022-11-21T23:16:22.005Z,99242.50
2022-11-21T23:18:49.145Z,99252.06
2022-11-21T23:21:15.802Z,99250.88
2022-11-21T23:23:43.854Z,99262.94
2022-11-21T23:26:11.311Z,99259.59
2022-11-21T23:28:38.079Z,99252.19
2022-11-21T23:31:04.516Z,99244.16
2022-11-21T23:33:31.011Z,99247.53
2022-11-21T23:35:57.708Z,99243.25
2022-11-21T23:38:24.194Z,99242.47
2022-11-21T23:40:50.863Z,99231.72
2022-11-21T23:43:18.551Z,99232.03
2022-11-21T23:45:49.678Z,99238.59
2022-11-21T23:48:16.327Z,99240.47
2022-11-21T23:50:42.804Z,99238.44
2022-11-21T23:53:09.283Z,99249.69
2022-11-21T23:55:36.051Z,99232.63
2022-11-21T23:58:03.469Z,99225.00
